Time;durP1;ratioP1;P1;durP2;ratioP2;P2;SDS_P1;SDS_P2;PMS_P1;PMS_P2;Temp;Humidity;BMP_temperature;BMP_pressure;BME280_temperature;BME280_humidity;BME280_pressure;Samples;Min_cycle;Max_cycle;Signal;HPM_P1;HPM_P2
2023/06/27 00:01:04;;;;;;;1999.90;999.90;;;;;;;22.31;92.92;95556.94;5064587;28;20193;-66
2023/06/27 00:03:33;;;;;;;1999.90;999.90;;;;;;;22.29;89.68;95565.75;5064521;28;20185;-66
2023/06/27 00:06:04;;;;;;;1999.90;999.90;;;;;;;22.16;89.85;95567.25;5064808;28;20186;-66
2023/06/27 00:08:31;;;;;;;1999.90;999.90;;;;;;;22.13;88.47;95568.19;5064343;28;20206;-67
2023/06/27 00:10:56;;;;;;;1999.90;999.90;;;;;;;22.03;91.54;95577.81;5064267;28;20212;-67
2023/06/27 00:13:22;;;;;;;1999.90;999.90;;;;;;;22.00;90.97;95576.75;5064764;28;20174;-66
2023/06/27 00:15:52;;;;;;;1999.90;999.90;;;;;;;21.95;91.56;95580.19;5064332;28;20252;-67
2023/06/27 00:18:21;;;;;;;1999.90;999.90;;;;;;;21.99;92.78;95580.78;5064459;28;20193;-66
2023/06/27 00:20:47;;;;;;;1999.90;999.90;;;;;;;22.01;93.36;95583.09;5063722;28;20197;-66
2023/06/27 00:23:22;;;;;;;1999.90;999.90;;;;;;;21.93;91.36;95577.09;5064229;28;20264;-66
2023/06/27 00:25:47;;;;;;;1999.90;999.90;;;;;;;21.99;92.99;95580.78;5064023;28;20209;-67
2023/06/27 00:28:13;;;;;;;1999.90;999.90;;;;;;;21.93;91.69;95582.69;5064445;28;20185;-66
2023/06/27 00:30:38;;;;;;;1999.90;999.90;;;;;;;21.79;92.31;95569.50;5064057;28;20213;-66
2023/06/27 00:33:04;;;;;;;1999.90;999.90;;;;;;;21.83;93.69;95575.66;5063942;28;20190;-66
2023/06/27 00:35:32;;;;;;;1999.90;999.90;;;;;;;21.84;92.18;95588.28;5064117;28;20201;-66
2023/06/27 00:38:04;;;;;;;1999.90;999.90;;;;;;;21.74;93.49;95575.69;5063875;28;20185;-66
2023/06/27 00:40:30;;;;;;;1999.90;999.90;;;;;;;21.64;93.82;95582.47;5064363;28;20193;-66
2023/06/27 00:42:55;;;;;;;1999.90;999.90;;;;;;;21.53;95.47;95579.44;5064041;28;20189;-66
2023/06/27 00:45:23;;;;;;;1999.90;999.90;;;;;;;21.54;95.29;95581.00;5063759;28;20223;-65
2023/06/27 00:47:52;;;;;;;1999.90;999.90;;;;;;;21.51;94.83;95584.72;5063552;28;20216;-66
2023/06/27 00:50:20;;;;;;;1999.90;999.90;;;;;;;21.52;98.42;95580.69;5063897;28;20236;-65
2023/06/27 00:52:46;;;;;;;1999.90;999.90;;;;;;;21.40;97.11;95595.56;5063607;28;20190;-66
2023/06/27 00:55:12;;;;;;;1999.90;999.90;;;;;;;21.43;98.36;95589.06;5063639;28;20200;-66
2023/06/27 00:57:37;;;;;;;1999.90;999.90;;;;;;;21.38;97.71;95592.47;5063488;28;20196;-66
2023/06/27 01:00:03;;;;;;;1999.90;999.90;;;;;;;21.45;100.00;95589.38;5063874;28;20292;-65
2023/06/27 01:02:28;;;;;;;1999.90;999.90;;;;;;;21.39;99.05;95591.25;5063576;28;20185;-66
2023/06/27 01:04:54;;;;;;;1999.90;999.90;;;;;;;21.35;100.00;95593.41;5063694;28;20186;-67
2023/06/27 01:07:29;;;;;;;1999.90;999.90;;;;;;;21.33;99.64;95590.34;5063909;28;20239;-65
2023/06/27 01:10:00;;;;;;;1999.90;999.90;;;;;;;21.24;100.00;95593.13;5063438;28;20209;-65
2023/06/27 01:12:46;;;;;;;1999.90;999.90;;;;;;;21.12;100.00;95591.31;5064082;28;20194;-67
2023/06/27 01:15:11;;;;;;;1999.90;999.90;;;;;;;21.21;100.00;95594.09;5063529;28;20261;-66
2023/06/27 01:17:38;;;;;;;1999.90;999.90;;;;;;;21.24;100.00;95598.69;5063366;28;20199;-66
2023/06/27 01:20:04;;;;;;;1999.90;999.90;;;;;;;21.19;100.00;95593.78;5063414;28;20198;-66
2023/06/27 01:22:37;;;;;;;1999.90;999.90;;;;;;;21.25;100.00;95603.03;5063515;28;20211;-66
2023/06/27 01:25:03;;;;;;;1999.90;999.90;;;;;;;21.18;100.00;95606.13;5063937;28;20251;-65
2023/06/27 01:27:29;;;;;;;1999.90;999.90;;;;;;;21.12;100.00;95596.88;5062849;28;20198;-66
2023/06/27 01:29:54;;;;;;;1999.90;999.90;;;;;;;21.12;100.00;95613.53;5063693;28;20193;-66
2023/06/27 01:32:24;;;;;;;1999.90;999.90;;;;;;;21.01;100.00;95613.25;5066524;28;20197;-65
2023/06/27 01:35:00;;;;;;;1999.90;999.90;;;;;;;21.07;100.00;95611.41;5067701;28;20217;-66
2023/06/27 01:37:30;;;;;;;1999.90;999.90;;;;;;;21.11;100.00;95612.00;5067445;28;20194;-65
2023/06/27 01:40:10;;;;;;;1999.90;999.90;;;;;;;21.02;100.00;95609.22;5067191;28;20185;-65
2023/06/27 01:42:40;;;;;;;1999.90;999.90;;;;;;;20.99;100.00;95614.97;5067166;28;20257;-66
2023/06/27 01:45:07;;;;;;;1999.90;999.90;;;;;;;20.85;100.00;95616.34;5067465;28;20205;-65
2023/06/27 01:47:36;;;;;;;1999.90;999.90;;;;;;;20.81;100.00;95623.28;5067220;28;20250;-65
2023/06/27 01:50:03;;;;;;;1999.90;999.90;;;;;;;20.83;100.00;95613.25;5066823;28;20198;-65
2023/06/27 01:52:28;;;;;;;1999.90;999.90;;;;;;;20.84;100.00;95609.25;5067341;28;20241;-66
2023/06/27 01:54:53;;;;;;;1999.90;999.90;;;;;;;20.75;100.00;95623.13;5067165;28;20192;-66
2023/06/27 01:57:19;;;;;;;1999.90;999.90;;;;;;;20.73;100.00;95620.06;5067127;28;20190;-66
2023/06/27 01:59:44;;;;;;;1999.90;999.90;;;;;;;20.73;100.00;95611.72;5067068;28;20224;-65
2023/06/27 02:02:10;;;;;;;1999.90;999.90;;;;;;;20.80;100.00;95591.94;5066936;28;20200;-66
2023/06/27 02:04:35;;;;;;;1999.90;999.90;;;;;;;20.67;100.00;95599.69;5066736;28;20257;-65
2023/06/27 02:07:00;;;;;;;1999.90;999.90;;;;;;;20.62;100.00;95594.75;5066833;28;20200;-66
2023/06/27 02:09:26;;;;;;;1999.90;999.90;;;;;;;20.67;100.00;95599.69;5066652;28;20225;-65
2023/06/27 02:11:51;;;;;;;1999.90;999.90;;;;;;;20.65;100.00;95599.38;5066682;28;20243;-66
2023/06/27 02:14:16;;;;;;;1999.90;999.90;;;;;;;20.67;100.00;95602.47;5066523;28;20196;-65
2023/06/27 02:16:42;;;;;;;1999.90;999.90;;;;;;;20.69;100.00;95611.09;5066185;28;20197;-65
2023/06/27 02:19:07;;;;;;;1999.90;999.90;;;;;;;20.62;100.00;95596.75;5066511;28;20186;-66
2023/06/27 02:21:32;;;;;;;1999.90;999.90;;;;;;;20.61;100.00;95600.78;5066205;28;20200;-65
2023/06/27 02:23:58;;;;;;;1999.90;999.90;;;;;;;20.58;100.00;95601.69;5066710;28;20292;-66
2023/06/27 02:26:24;;;;;;;1999.90;999.90;;;;;;;20.48;100.00;95609.25;5066709;28;20198;-65
2023/06/27 02:28:49;;;;;;;1999.90;999.90;;;;;;;20.50;100.00;95600.47;5066638;28;20224;-66
2023/06/27 02:31:14;;;;;;;1999.90;999.90;;;;;;;20.40;100.00;95594.13;5066072;28;20209;-65
2023/06/27 02:33:40;;;;;;;1999.90;999.90;;;;;;;20.30;100.00;95589.03;5066173;28;20222;-65
2023/06/27 02:36:06;;;;;;;1999.90;999.90;;;;;;;20.40;100.00;95599.66;5066498;28;20221;-65
2023/06/27 02:38:31;;;;;;;1999.90;999.90;;;;;;;20.35;100.00;95603.06;5066086;28;20193;-66
2023/06/27 02:40:56;;;;;;;1999.90;999.90;;;;;;;20.41;100.00;95603.22;5065925;28;20221;-65
2023/06/27 02:43:22;;;;;;;1999.90;999.90;;;;;;;20.35;100.00;95591.97;5065142;28;20186;-65
2023/06/27 02:45:47;;;;;;;1999.90;999.90;;;;;;;20.34;100.00;95598.75;5066056;28;20475;-66
2023/06/27 02:48:12;;;;;;;1999.90;999.90;;;;;;;20.37;100.00;95592.28;5065775;28;20200;-65
2023/06/27 02:50:38;;;;;;;1999.90;999.90;;;;;;;20.33;100.00;95597.22;5065895;28;20207;-65
2023/06/27 02:53:03;;;;;;;1999.90;999.90;;;;;;;20.28;100.00;95605.38;5065655;28;20265;-65
2023/06/27 02:55:28;;;;;;;1999.90;999.90;;;;;;;20.21;100.00;95606.44;5066192;28;20213;-66
2023/06/27 02:57:54;;;;;;;1999.90;999.90;;;;;;;20.14;100.00;95612.28;5066275;28;20190;-66
2023/06/27 03:00:19;;;;;;;1999.90;999.90;;;;;;;20.11;100.00;95604.13;5066006;28;20193;-65
2023/06/27 03:02:45;;;;;;;1999.90;999.90;;;;;;;20.16;100.00;95601.50;5066365;28;20186;-65
2023/06/27 03:05:10;;;;;;;1999.90;999.90;;;;;;;20.26;100.00;95611.41;5065558;28;20189;-65
2023/06/27 03:07:35;;;;;;;1999.90;999.90;;;;;;;20.22;100.00;95608.00;5065607;28;20269;-65
2023/06/27 03:10:01;;;;;;;1999.90;999.90;;;;;;;20.14;100.00;95617.06;5065309;28;20213;-65
2023/06/27 03:12:26;;;;;;;1999.90;999.90;;;;;;;20.19;100.00;95619.22;5065380;28;20212;-65
2023/06/27 03:14:51;;;;;;;1999.90;999.90;;;;;;;20.14;100.00;95617.81;5065252;28;20280;-66
2023/06/27 03:17:17;;;;;;;1999.90;999.90;;;;;;;20.12;100.00;95611.97;5065451;28;20186;-65
2023/06/27 03:19:42;;;;;;;1999.90;999.90;;;;;;;20.14;100.00;95615.06;5065405;28;20197;-65
2023/06/27 03:22:08;;;;;;;1999.90;999.90;;;;;;;20.11;100.00;95613.22;5065395;28;20196;-65
2023/06/27 03:24:33;;;;;;;1999.90;999.90;;;;;;;20.15;100.00;95615.84;5065037;28;20190;-66
2023/06/27 03:26:58;;;;;;;1999.90;999.90;;;;;;;20.18;100.00;95610.13;5065078;28;20189;-65
2023/06/27 03:29:24;;;;;;;1999.90;999.90;;;;;;;20.12;100.00;95620.31;5065125;28;20283;-65
2023/06/27 03:31:49;;;;;;;1999.90;999.90;;;;;;;20.11;100.00;95621.53;5065014;28;20196;-65
2023/06/27 03:34:15;;;;;;;1999.90;999.90;;;;;;;20.15;100.00;95630.47;5065142;28;20189;-65
2023/06/27 03:36:40;;;;;;;1999.90;999.90;;;;;;;20.13;100.00;95621.84;5065233;28;20194;-65
2023/06/27 03:39:06;;;;;;;1999.90;999.90;;;;;;;20.11;100.00;95629.88;5064883;28;20201;-66
2023/06/27 03:41:31;;;;;;;1999.90;999.90;;;;;;;20.09;100.00;95626.72;5064931;28;20189;-64
2023/06/27 03:43:56;;;;;;;1999.90;999.90;;;;;;;20.05;100.00;95631.66;5064612;28;20221;-63
2023/06/27 03:46:22;;;;;;;1999.90;999.90;;;;;;;20.04;100.00;95632.91;5064692;28;20189;-63
2023/06/27 03:48:51;;;;;;;1999.90;999.90;;;;;;;20.02;100.00;95629.78;5064695;28;20265;-63
2023/06/27 03:51:16;;;;;;;1999.90;999.90;;;;;;;20.03;100.00;95623.00;5064713;28;20244;-63
2023/06/27 03:53:42;;;;;;;1999.90;999.90;;;;;;;19.91;100.00;95626.69;5064618;28;20197;-64
2023/06/27 03:56:07;;;;;;;1999.90;999.90;;;;;;;19.85;100.00;95628.50;5064604;28;20169;-63
2023/06/27 03:58:33;;;;;;;1999.90;999.90;;;;;;;19.88;100.00;95633.13;5065024;28;20201;-64
2023/06/27 04:00:58;;;;;;;1999.90;999.90;;;;;;;19.84;100.00;95632.50;5065192;28;20281;-64
2023/06/27 04:03:23;;;;;;;1999.90;999.90;;;;;;;19.87;100.00;95631.59;5064744;28;20208;-65
2023/06/27 04:05:49;;;;;;;1999.90;999.90;;;;;;;19.92;100.00;95635.78;5064329;28;20200;-65
2023/06/27 04:08:14;;;;;;;1999.90;999.90;;;;;;;19.96;100.00;95639.94;5064333;28;20228;-65
2023/06/27 04:10:42;;;;;;;1999.90;999.90;;;;;;;20.01;100.00;95636.56;5064110;28;20285;-64
2023/06/27 04:13:11;;;;;;;1999.90;999.90;;;;;;;19.90;100.00;95636.25;5064101;28;20277;-64
2023/06/27 04:15:45;;;;;;;1999.90;999.90;;;;;;;19.75;100.00;95643.59;5064310;28;20209;-63
2023/06/27 04:18:10;;;;;;;1999.90;999.90;;;;;;;19.63;100.00;95649.97;5064392;28;20190;-64
2023/06/27 04:20:36;;;;;;;1999.90;999.90;;;;;;;19.43;100.00;95644.03;5063869;28;20240;-63
2023/06/27 04:23:02;;;;;;;1999.90;999.90;;;;;;;19.44;100.00;95642.81;5064522;28;20228;-64
2023/06/27 04:25:32;;;;;;;1999.90;999.90;;;;;;;19.47;100.00;95641.91;5064476;28;20308;-64
2023/06/27 04:27:57;;;;;;;1999.90;999.90;;;;;;;19.47;100.00;95647.44;5064401;28;20261;-62
2023/06/27 04:30:23;;;;;;;1999.90;999.90;;;;;;;19.49;100.00;95653.31;5064270;28;20209;-63
2023/06/27 04:32:50;;;;;;;1999.90;999.90;;;;;;;19.56;100.00;95643.97;5047706;28;20221;-63
2023/06/27 04:35:18;;;;;;;1999.90;999.90;;;;;;;19.58;100.00;95656.13;5063785;28;20242;-63
2023/06/27 04:37:45;;;;;;;1999.90;999.90;;;;;;;19.48;100.00;95652.53;5064309;28;20221;-63
2023/06/27 04:40:11;;;;;;;1999.90;999.90;;;;;;;19.44;100.00;95654.69;5063896;28;20201;-62
2023/06/27 04:42:37;;;;;;;1999.90;999.90;;;;;;;19.49;100.00;95665.16;5063906;28;20206;-62
2023/06/27 04:45:03;;;;;;;1999.90;999.90;;;;;;;19.49;100.00;95667.19;5063650;28;20215;-62
2023/06/27 04:47:29;;;;;;;1999.90;999.90;;;;;;;19.47;100.00;95664.06;5063803;28;20197;-62
2023/06/27 04:49:55;;;;;;;1999.90;999.90;;;;;;;19.41;100.00;95665.88;5064239;28;20214;-62
2023/06/27 04:52:20;;;;;;;1999.90;999.90;;;;;;;19.32;100.00;95668.59;5064189;28;20288;-62
2023/06/27 04:54:49;;;;;;;1999.90;999.90;;;;;;;19.42;100.00;95675.75;5064184;28;20174;-63
2023/06/27 04:57:15;;;;;;;1999.90;999.90;;;;;;;19.45;100.00;95672.09;5064130;28;20205;-62
2023/06/27 04:59:41;;;;;;;1999.90;999.90;;;;;;;19.53;100.00;95670.59;5063993;28;20224;-62
2023/06/27 05:02:07;;;;;;;1999.90;999.90;;;;;;;19.50;100.00;95679.78;5063930;28;20206;-62
2023/06/27 05:04:33;;;;;;;1999.90;999.90;;;;;;;19.37;100.00;95676.31;5064033;28;20212;-62
2023/06/27 05:06:58;;;;;;;1999.90;999.90;;;;;;;19.39;100.00;95673.88;5066365;28;20206;-62
2023/06/27 05:09:24;;;;;;;1999.90;999.90;;;;;;;19.40;100.00;95669.88;5067666;28;20276;-62
2023/06/27 05:11:49;;;;;;;1999.90;999.90;;;;;;;19.45;100.00;95672.09;5067747;28;20198;-62
2023/06/27 05:14:14;;;;;;;1999.90;999.90;;;;;;;19.37;100.00;95674.34;5067577;28;20193;-62
2023/06/27 05:16:40;;;;;;;1999.90;999.90;;;;;;;19.38;100.00;95678.66;5067698;28;20193;-62
2023/06/27 05:19:05;;;;;;;1999.90;999.90;;;;;;;19.40;100.00;95675.41;5067916;28;20256;-62
2023/06/27 05:21:31;;;;;;;1999.90;999.90;;;;;;;19.32;100.00;95679.69;5067505;28;20198;-62
2023/06/27 05:23:56;;;;;;;1999.90;999.90;;;;;;;19.39;100.00;95684.97;5067456;28;20177;-62
2023/06/27 05:26:21;;;;;;;1999.90;999.90;;;;;;;19.47;100.00;95680.69;5067476;28;20209;-62
2023/06/27 05:28:47;;;;;;;1999.90;999.90;;;;;;;19.56;100.00;95678.00;5067573;28;20205;-62
2023/06/27 05:31:12;;;;;;;1999.90;999.90;;;;;;;19.59;100.00;95685.38;5067422;28;20241;-62
2023/06/27 05:33:38;;;;;;;1999.90;999.90;;;;;;;19.58;100.00;95686.59;5067291;28;20205;-62
2023/06/27 05:36:03;;;;;;;1999.90;999.90;;;;;;;19.58;100.00;95689.38;5067433;28;20233;-62
2023/06/27 05:38:29;;;;;;;1999.90;999.90;;;;;;;19.66;100.00;95690.66;5066968;28;20197;-71
2023/06/27 05:40:54;;;;;;;1999.90;999.90;;;;;;;19.68;100.00;95693.75;5067046;28;20202;-73
2023/06/27 05:43:19;;;;;;;1999.90;999.90;;;;;;;19.58;100.00;95692.16;5067055;28;20202;-70
2023/06/27 05:45:45;;;;;;;1999.90;999.90;;;;;;;19.76;100.00;95681.16;5066854;28;20209;-63
2023/06/27 05:48:10;;;;;;;1999.90;999.90;;;;;;;19.80;100.00;95684.56;5067216;28;20203;-61
2023/06/27 05:50:35;;;;;;;1999.90;999.90;;;;;;;19.80;100.00;95679.00;5067046;28;20213;-61
2023/06/27 05:53:01;;;;;;;1999.90;999.90;;;;;;;19.83;100.00;95677.31;5066967;28;20198;-61
2023/06/27 05:55:26;;;;;;;1999.90;999.90;;;;;;;19.88;100.00;95685.81;5066828;28;20201;-61
2023/06/27 05:57:51;;;;;;;1999.90;999.90;;;;;;;19.88;100.00;95696.91;5066884;28;20201;-61
2023/06/27 06:00:17;;;;;;;1999.90;999.90;;;;;;;19.96;100.00;95695.38;5067139;28;20220;-61
2023/06/27 06:02:43;;;;;;;1999.90;999.90;;;;;;;19.86;100.00;95684.72;5066486;28;20250;-60
2023/06/27 06:05:10;;;;;;;1999.90;999.90;;;;;;;19.96;100.00;95683.53;5066494;28;20206;-60
2023/06/27 06:07:39;;;;;;;1999.90;999.90;;;;;;;19.97;100.00;95679.53;5066318;28;20240;-60
2023/06/27 06:10:05;;;;;;;1999.90;999.90;;;;;;;20.07;100.00;95684.66;5066251;28;20206;-60
2023/06/27 06:12:31;;;;;;;1999.90;999.90;;;;;;;20.15;100.00;95680.41;5066181;28;20194;-60
2023/06/27 06:14:56;;;;;;;1999.90;999.90;;;;;;;20.18;100.00;95685.03;5066851;28;20198;-61
2023/06/27 06:17:21;;;;;;;1999.90;999.90;;;;;;;20.26;100.00;95679.97;5064992;28;20197;-60
2023/06/27 06:19:47;;;;;;;1999.90;999.90;;;;;;;20.23;100.00;95692.75;5066407;28;20194;-61
2023/06/27 06:22:12;;;;;;;1999.90;999.90;;;;;;;20.19;100.00;95683.81;5066092;28;20185;-60
2023/06/27 06:24:37;;;;;;;1999.90;999.90;;;;;;;20.27;100.00;95676.72;5066030;28;20197;-61
2023/06/27 06:27:03;;;;;;;1999.90;999.90;;;;;;;20.17;100.00;95683.47;5066233;28;20224;-61
2023/06/27 06:29:28;;;;;;;1999.90;999.90;;;;;;;20.21;100.00;95686.88;5066389;28;20209;-61
2023/06/27 06:31:54;;;;;;;1999.90;999.90;;;;;;;20.27;100.00;95689.81;5066494;28;20194;-61
2023/06/27 06:34:19;;;;;;;1999.90;999.90;;;;;;;20.10;100.00;95686.53;5066248;28;20189;-61
2023/06/27 06:36:44;;;;;;;1999.90;999.90;;;;;;;20.05;100.00;95683.56;5066423;28;20198;-61
2023/06/27 06:39:09;;;;;;;1999.90;999.90;;;;;;;20.12;100.00;95686.09;5066266;28;20200;-60
2023/06/27 06:41:35;;;;;;;1999.90;999.90;;;;;;;20.19;100.00;95686.59;5066105;28;20189;-60
2023/06/27 06:44:00;;;;;;;1999.90;999.90;;;;;;;20.17;100.00;95689.03;5065989;28;20193;-60
2023/06/27 06:46:26;;;;;;;1999.90;999.90;;;;;;;20.20;100.00;95702.00;5066188;28;20186;-61
2023/06/27 06:48:51;;;;;;;1999.90;999.90;;;;;;;20.13;100.00;95701.50;5065949;28;20190;-59
2023/06/27 06:51:17;;;;;;;1999.90;999.90;;;;;;;20.16;100.00;95703.34;5065177;28;20213;-60
2023/06/27 06:53:42;;;;;;;1999.90;999.90;;;;;;;20.17;100.00;95705.66;5066225;28;20197;-60
2023/06/27 06:56:07;;;;;;;1999.90;999.90;;;;;;;20.19;100.00;95708.78;5065818;28;20186;-62
2023/06/27 06:58:33;;;;;;;1999.90;999.90;;;;;;;20.31;100.00;95699.56;5065881;28;20158;-61
2023/06/27 07:00:58;;;;;;;1999.90;999.90;;;;;;;20.23;100.00;95703.84;5065891;28;20190;-61
2023/06/27 07:03:24;;;;;;;1999.90;999.90;;;;;;;20.24;100.00;95694.28;5065778;28;20215;-60
2023/06/27 07:05:49;;;;;;;1999.90;999.90;;;;;;;20.27;100.00;95704.47;5065735;28;20269;-61
2023/06/27 07:08:14;;;;;;;1999.90;999.90;;;;;;;20.34;100.00;95709.75;5065276;28;20189;-61
2023/06/27 07:10:40;;;;;;;1999.90;999.90;;;;;;;20.30;100.00;95703.56;5065389;28;20228;-60
2023/06/27 07:13:05;;;;;;;1999.90;999.90;;;;;;;20.29;100.00;95706.78;5065567;28;20198;-60
2023/06/27 07:15:32;;;;;;;1999.90;999.90;;;;;;;20.42;100.00;95702.66;5065237;28;20209;-61
2023/06/27 07:17:59;;;;;;;1999.90;999.90;;;;;;;20.42;100.00;95699.88;5065416;28;20193;-61
2023/06/27 07:20:25;;;;;;;1999.90;999.90;;;;;;;20.38;100.00;95704.81;5065664;28;20186;-61
2023/06/27 07:22:50;;;;;;;1999.90;999.90;;;;;;;20.36;100.00;95707.25;5065699;28;20181;-61
2023/06/27 07:25:16;;;;;;;1999.90;999.90;;;;;;;20.48;100.00;95692.50;5065197;28;20269;-62
2023/06/27 07:27:45;;;;;;;1999.90;999.90;;;;;;;20.73;100.00;95697.78;5064996;28;20190;-61
2023/06/27 07:30:11;;;;;;;1999.90;999.90;;;;;;;20.94;100.00;95690.56;5064804;28;20212;-61
2023/06/27 07:32:37;;;;;;;1999.90;999.90;;;;;;;21.22;100.00;95687.31;5065303;28;20193;-60
2023/06/27 07:35:04;;;;;;;1999.90;999.90;;;;;;;21.43;100.00;95678.00;5064723;28;20263;-61
2023/06/27 07:37:30;;;;;;;1999.90;999.90;;;;;;;21.61;100.00;95677.19;5065507;28;20190;-61
2023/06/27 07:39:55;;;;;;;1999.90;999.90;;;;;;;21.73;100.00;95674.25;5064843;28;20239;-61
2023/06/27 07:42:20;;;;;;;1999.90;999.90;;;;;;;21.91;100.00;95682.53;5064734;28;20201;-61
2023/06/27 07:44:46;;;;;;;1999.90;999.90;;;;;;;21.94;100.00;95687.16;5064763;28;20190;-62
2023/06/27 07:47:11;;;;;;;1999.90;999.90;;;;;;;21.80;100.00;95687.81;5065185;28;20217;-61
2023/06/27 07:49:39;;;;;;;1999.90;999.90;;;;;;;21.76;100.00;95692.78;5064650;28;20205;-62
2023/06/27 07:52:09;;;;;;;1999.90;999.90;;;;;;;21.91;100.00;95685.31;5064829;28;20190;-61
2023/06/27 07:54:35;;;;;;;1999.90;999.90;;;;;;;22.11;100.00;95682.75;5064810;28;20208;-61
2023/06/27 07:57:00;;;;;;;1999.90;999.90;;;;;;;22.21;100.00;95689.81;5064476;28;20178;-61
2023/06/27 07:59:26;;;;;;;1999.90;999.90;;;;;;;22.89;94.38;95679.66;5065210;28;20269;-62
2023/06/27 08:01:51;;;;;;;1999.90;999.90;;;;;;;23.53;84.54;95679.88;5064787;28;20201;-61
2023/06/27 08:04:17;;;;;;;1999.90;999.90;;;;;;;24.45;81.69;95673.50;5064625;28;20194;-62
2023/06/27 08:06:43;;;;;;;1999.90;999.90;;;;;;;25.81;75.40;95674.88;5064487;28;20197;-62
2023/06/27 08:09:08;;;;;;;1999.90;999.90;;;;;;;26.90;67.13;95668.50;5064283;28;20423;-63
2023/06/27 08:11:33;;;;;;;1999.90;999.90;;;;;;;27.25;65.56;95668.94;5064256;28;20274;-63
2023/06/27 08:13:59;;;;;;;1999.90;999.90;;;;;;;27.50;63.16;95671.53;5063972;28;20201;-63
2023/06/27 08:16:24;;;;;;;1999.90;999.90;;;;;;;26.84;65.16;95676.88;5064676;28;20190;-62
2023/06/27 08:18:50;;;;;;;1999.90;999.90;;;;;;;26.52;63.76;95678.25;5064106;28;20196;-62
2023/06/27 08:21:15;;;;;;;1999.90;999.90;;;;;;;26.21;65.22;95683.09;5064298;28;20224;-63
2023/06/27 08:23:42;;;;;;;1999.90;999.90;;;;;;;27.39;61.83;95682.72;5064102;28;20193;-63
2023/06/27 08:26:08;;;;;;;1999.90;999.90;;;;;;;28.66;56.17;95679.25;5063879;28;20280;-63
2023/06/27 08:28:33;;;;;;;1999.90;999.90;;;;;;;28.99;53.59;95679.16;5064317;28;20177;-63
2023/06/27 08:30:58;;;;;;;1999.90;999.90;;;;;;;28.62;53.61;95679.50;5064380;28;20213;-63
2023/06/27 08:33:25;;;;;;;1999.90;999.90;;;;;;;29.00;52.44;95686.28;5064226;28;20193;-63
2023/06/27 08:35:50;;;;;;;1999.90;999.90;;;;;;;28.55;51.17;95673.66;5064293;28;20221;-62
2023/06/27 08:38:17;;;;;;;1999.90;999.90;;;;;;;27.73;56.96;95670.31;5064212;28;20186;-63
2023/06/27 08:40:42;;;;;;;1999.90;999.90;;;;;;;27.84;56.70;95678.00;5063121;28;20197;-63
2023/06/27 08:43:10;;;;;;;1999.90;999.90;;;;;;;27.33;55.89;95673.56;5063951;28;20296;-63
2023/06/27 08:45:37;;;;;;;1999.90;999.90;;;;;;;26.75;56.72;95671.50;5063825;28;20189;-63
2023/06/27 08:48:05;;;;;;;1999.90;999.90;;;;;;;26.75;57.26;95663.09;5063625;28;20189;-62
2023/06/27 08:50:34;;;;;;;1999.90;999.90;;;;;;;27.08;55.61;95663.22;5063618;28;20217;-62
2023/06/27 08:53:04;;;;;;;1999.90;999.90;;;;;;;27.46;51.39;95665.41;5063325;28;20186;-63
2023/06/27 08:55:44;;;;;;;1999.90;999.90;;;;;;;27.88;49.79;95662.44;5064036;28;20182;-61
2023/06/27 08:58:14;;;;;;;1999.90;999.90;;;;;;;28.61;46.05;95655.47;5063935;28;20200;-62
2023/06/27 09:00:41;;;;;;;1999.90;999.90;;;;;;;28.99;44.41;95659.44;5064286;28;20204;-62
2023/06/27 09:03:07;;;;;;;1999.90;999.90;;;;;;;28.15;45.62;95658.06;5063650;28;20276;-62
2023/06/27 09:05:35;;;;;;;1999.90;999.90;;;;;;;28.84;45.56;95661.81;5063727;28;20197;-62
2023/06/27 09:08:01;;;;;;;1999.90;999.90;;;;;;;28.46;45.02;95655.00;5063456;28;20197;-63
2023/06/27 09:10:28;;;;;;;1999.90;999.90;;;;;;;28.15;45.92;95656.03;5063379;28;20216;-61
2023/06/27 09:12:54;;;;;;;1999.90;999.90;;;;;;;29.18;44.90;95660.41;5063445;28;20204;-62
2023/06/27 09:15:20;;;;;;;1999.90;999.90;;;;;;;30.35;39.26;95653.50;5063664;28;20204;-62
2023/06/27 09:17:46;;;;;;;1999.90;999.90;;;;;;;29.64;40.66;95660.44;5063430;28;20194;-61
2023/06/27 09:20:16;;;;;;;1999.90;999.90;;;;;;;28.74;42.13;95657.75;5063461;28;20252;-62
2023/06/27 09:22:42;;;;;;;1999.90;999.90;;;;;;;29.86;39.63;95660.28;5063966;28;20225;-63
2023/06/27 09:25:11;;;;;;;1999.90;999.90;;;;;;;30.21;39.83;95663.88;5063779;28;20198;-62
2023/06/27 09:27:37;;;;;;;1999.90;999.90;;;;;;;29.61;37.67;95667.13;5063577;28;20216;-62
2023/06/27 09:30:05;;;;;;;1999.90;999.90;;;;;;;28.77;40.29;95660.28;5063270;28;20211;-62
2023/06/27 09:32:30;;;;;;;1999.90;999.90;;;;;;;28.70;42.66;95657.25;5063756;28;20193;-61
2023/06/27 09:34:56;;;;;;;1999.90;999.90;;;;;;;27.79;44.22;95657.03;5063173;28;20193;-63
2023/06/27 09:37:28;;;;;;;1999.90;999.90;;;;;;;29.02;42.48;95655.63;5063411;28;20237;-62
2023/06/27 09:39:54;;;;;;;1999.90;999.90;;;;;;;28.80;43.68;95655.69;5063681;28;20243;-63
2023/06/27 09:42:19;;;;;;;1999.90;999.90;;;;;;;29.15;43.00;95653.00;5063565;28;20196;-63
2023/06/27 09:44:45;;;;;;;1999.90;999.90;;;;;;;28.96;43.45;95649.22;5063258;28;20189;-62
2023/06/27 09:47:11;;;;;;;1999.90;999.90;;;;;;;29.02;42.85;95650.00;5063050;28;20225;-63
2023/06/27 09:49:41;;;;;;;1999.90;999.90;;;;;;;29.97;40.60;95646.88;5062813;28;20194;-62
2023/06/27 09:52:08;;;;;;;1999.90;999.90;;;;;;;30.07;38.82;95636.03;5064018;28;20198;-62
2023/06/27 09:54:41;;;;;;;1999.90;999.90;;;;;;;30.27;37.74;95632.81;5066578;28;20194;-61
2023/06/27 09:57:12;;;;;;;1999.90;999.90;;;;;;;32.02;35.55;95628.28;5067169;28;20204;-62
2023/06/27 09:59:37;;;;;;;1999.90;999.90;;;;;;;30.56;37.99;95632.00;5066893;28;20193;-62
2023/06/27 10:02:03;;;;;;;1999.90;999.90;;;;;;;29.43;40.30;95633.91;5067148;28;20268;-61
2023/06/27 10:04:28;;;;;;;1999.90;999.90;;;;;;;28.95;42.08;95628.00;5066779;28;20189;-62
2023/06/27 10:06:54;;;;;;;1999.90;999.90;;;;;;;29.89;40.56;95625.41;5066562;28;20218;-62
2023/06/27 10:09:19;;;;;;;1999.90;999.90;;;;;;;29.31;42.82;95632.47;5067209;28;20198;-62
2023/06/27 10:11:45;;;;;;;1999.90;999.90;;;;;;;29.48;43.19;95633.88;5066821;28;20201;-62
2023/06/27 10:14:11;;;;;;;1999.90;999.90;;;;;;;29.21;42.63;95628.41;5066835;28;20252;-62
2023/06/27 10:16:37;;;;;;;1999.90;999.90;;;;;;;28.81;43.11;95624.22;5066620;28;20169;-64
2023/06/27 10:19:04;;;;;;;1999.90;999.90;;;;;;;30.00;40.71;95625.31;5066772;28;20200;-62
2023/06/27 10:21:30;;;;;;;1999.90;999.90;;;;;;;30.60;39.74;95615.53;5066701;28;20190;-62
2023/06/27 10:23:59;;;;;;;1999.90;999.90;;;;;;;30.65;39.05;95628.81;5066505;28;20259;-62
2023/06/27 10:26:26;;;;;;;1999.90;999.90;;;;;;;31.00;37.53;95620.22;5066404;28;20255;-62
2023/06/27 10:28:52;;;;;;;1999.90;999.90;;;;;;;30.98;37.74;95617.94;5066711;28;20204;-62
2023/06/27 10:31:42;;;;;;;1999.90;999.90;;;;;;;32.03;36.19;95613.63;5066154;28;20206;-62
2023/06/27 10:34:09;;;;;;;1999.90;999.90;;;;;;;32.31;36.09;95611.13;5066379;28;20197;-61
2023/06/27 10:37:00;;;;;;;1999.90;999.90;;;;;;;32.38;34.69;95604.81;5066319;28;20213;-63
2023/06/27 10:39:29;;;;;;;1999.90;999.90;;;;;;;32.87;34.36;95616.50;5066468;28;20197;-62
2023/06/27 10:42:15;;;;;;;1999.90;999.90;;;;;;;33.12;34.25;95614.94;5065994;28;20201;-61
2023/06/27 10:45:15;;;;;;;1999.90;999.90;;;;;;;32.44;34.73;95619.59;5048784;28;20206;-62
2023/06/27 10:47:44;;;;;;;1999.90;999.90;;;;;;;32.60;34.27;95612.88;5065921;28;20193;-62